sensor_id;sensor_type;location;lat;lon;timestamp;temperature;humidity
30174;DHT22;16985;50.814;8.530;2023-02-15T00:02:14;1.50;99.90
30174;DHT22;16985;50.814;8.530;2023-02-15T00:04:39;1.50;99.90
30174;DHT22;16985;50.814;8.530;2023-02-15T00:07:13;1.50;99.90
30174;DHT22;16985;50.814;8.530;2023-02-15T00:09:39;1.40;99.90
30174;DHT22;16985;50.814;8.530;2023-02-15T00:12:05;1.50;99.90
30174;DHT22;16985;50.814;8.530;2023-02-15T00:14:34;1.50;99.90
30174;DHT22;16985;50.814;8.530;2023-02-15T00:17:00;1.50;99.90
30174;DHT22;16985;50.814;8.530;2023-02-15T00:19:26;1.50;99.90
30174;DHT22;16985;50.814;8.530;2023-02-15T00:21:52;1.50;99.90
30174;DHT22;16985;50.814;8.530;2023-02-15T00:24:19;1.50;99.90
30174;DHT22;16985;50.814;8.530;2023-02-15T00:26:46;1.50;99.90
30174;DHT22;16985;50.814;8.530;2023-02-15T00:29:15;1.50;99.90
30174;DHT22;16985;50.814;8.530;2023-02-15T00:31:42;1.50;99.90
30174;DHT22;16985;50.814;8.530;2023-02-15T00:34:18;1.50;99.90
30174;DHT22;16985;50.814;8.530;2023-02-15T00:36:46;1.50;99.90
30174;DHT22;16985;50.814;8.530;2023-02-15T00:39:14;1.50;99.90
30174;DHT22;16985;50.814;8.530;2023-02-15T00:41:40;1.50;99.90
30174;DHT22;16985;50.814;8.530;2023-02-15T00:44:07;1.40;99.90
30174;DHT22;16985;50.814;8.530;2023-02-15T00:46:33;1.40;99.90
30174;DHT22;16985;50.814;8.530;2023-02-15T00:49:00;1.40;99.90
30174;DHT22;16985;50.814;8.530;2023-02-15T00:51:26;1.40;99.90
30174;DHT22;16985;50.814;8.530;2023-02-15T00:53:52;1.40;99.90
30174;DHT22;16985;50.814;8.530;2023-02-15T00:56:18;1.40;99.90
30174;DHT22;16985;50.814;8.530;2023-02-15T00:58:44;1.40;99.90
30174;DHT22;16985;50.814;8.530;2023-02-15T01:01:14;1.40;99.90
30174;DHT22;16985;50.814;8.530;2023-02-15T01:03:42;1.40;99.90
30174;DHT22;16985;50.814;8.530;2023-02-15T01:06:09;1.40;99.90
30174;DHT22;16985;50.814;8.530;2023-02-15T01:08:36;1.40;99.90
30174;DHT22;16985;50.814;8.530;2023-02-15T01:11:11;1.40;99.90
30174;DHT22;16985;50.814;8.530;2023-02-15T01:13:40;1.40;99.90
30174;DHT22;16985;50.814;8.530;2023-02-15T01:16:06;1.30;99.90
30174;DHT22;16985;50.814;8.530;2023-02-15T01:18:35;1.40;99.90
30174;DHT22;16985;50.814;8.530;2023-02-15T01:21:09;1.40;99.90
30174;DHT22;16985;50.814;8.530;2023-02-15T01:23:40;1.40;99.90
30174;DHT22;16985;50.814;8.530;2023-02-15T01:26:09;1.40;99.90
30174;DHT22;16985;50.814;8.530;2023-02-15T01:28:38;1.30;99.90
30174;DHT22;16985;50.814;8.530;2023-02-15T01:31:09;1.30;99.90
30174;DHT22;16985;50.814;8.530;2023-02-15T01:33:37;1.30;99.90
30174;DHT22;16985;50.814;8.530;2023-02-15T01:36:04;1.30;99.90
30174;DHT22;16985;50.814;8.530;2023-02-15T01:38:31;1.30;99.90
30174;DHT22;16985;50.814;8.530;2023-02-15T01:40:59;1.20;99.90
30174;DHT22;16985;50.814;8.530;2023-02-15T01:43:46;1.20;99.90
30174;DHT22;16985;50.814;8.530;2023-02-15T01:46:16;1.20;99.90
30174;DHT22;16985;50.814;8.530;2023-02-15T01:48:48;1.20;99.90
30174;DHT22;16985;50.814;8.530;2023-02-15T01:51:21;1.20;99.90
30174;DHT22;16985;50.814;8.530;2023-02-15T01:53:54;1.20;99.90
30174;DHT22;16985;50.814;8.530;2023-02-15T01:56:32;1.20;99.90
30174;DHT22;16985;50.814;8.530;2023-02-15T01:59:03;1.20;99.90
30174;DHT22;16985;50.814;8.530;2023-02-15T02:01:32;1.20;99.90
30174;DHT22;16985;50.814;8.530;2023-02-15T02:04:23;1.20;99.90
30174;DHT22;16985;50.814;8.530;2023-02-15T02:06:57;1.20;99.90
30174;DHT22;16985;50.814;8.530;2023-02-15T02:09:23;1.20;99.90
30174;DHT22;16985;50.814;8.530;2023-02-15T02:11:49;1.20;99.90
30174;DHT22;16985;50.814;8.530;2023-02-15T02:14:19;1.20;99.90
30174;DHT22;16985;50.814;8.530;2023-02-15T02:17:03;1.20;99.90
30174;DHT22;16985;50.814;8.530;2023-02-15T02:20:16;1.20;99.90
30174;DHT22;16985;50.814;8.530;2023-02-15T02:23:26;1.10;99.90
30174;DHT22;16985;50.814;8.530;2023-02-15T02:26:16;1.20;99.90
30174;DHT22;16985;50.814;8.530;2023-02-15T02:32:12;1.20;99.90
30174;DHT22;16985;50.814;8.530;2023-02-15T02:35:56;1.10;99.90
30174;DHT22;16985;50.814;8.530;2023-02-15T02:38:21;1.20;99.90
30174;DHT22;16985;50.814;8.530;2023-02-15T02:41:12;1.10;99.90
30174;DHT22;16985;50.814;8.530;2023-02-15T02:47:10;1.20;99.90
30174;DHT22;16985;50.814;8.530;2023-02-15T02:49:39;1.20;99.90
30174;DHT22;16985;50.814;8.530;2023-02-15T02:52:36;1.10;99.90
30174;DHT22;16985;50.814;8.530;2023-02-15T02:58:25;1.20;99.90
30174;DHT22;16985;50.814;8.530;2023-02-15T03:01:01;1.10;99.90
30174;DHT22;16985;50.814;8.530;2023-02-15T03:06:45;1.10;99.90
30174;DHT22;16985;50.814;8.530;2023-02-15T03:09:17;1.20;99.90
30174;DHT22;16985;50.814;8.530;2023-02-15T03:12:01;1.10;99.90
30174;DHT22;16985;50.814;8.530;2023-02-15T03:14:30;1.20;99.90
30174;DHT22;16985;50.814;8.530;2023-02-15T03:16:57;1.10;99.90
30174;DHT22;16985;50.814;8.530;2023-02-15T03:19:28;1.20;99.90
30174;DHT22;16985;50.814;8.530;2023-02-15T03:22:03;1.10;99.90
30174;DHT22;16985;50.814;8.530;2023-02-15T03:24:57;1.10;99.90
30174;DHT22;16985;50.814;8.530;2023-02-15T03:27:31;1.10;99.90
30174;DHT22;16985;50.814;8.530;2023-02-15T03:30:02;1.10;99.90
30174;DHT22;16985;50.814;8.530;2023-02-15T03:32:29;1.10;99.90
30174;DHT22;16985;50.814;8.530;2023-02-15T03:34:58;1.10;99.90
30174;DHT22;16985;50.814;8.530;2023-02-15T03:37:50;1.10;99.90
30174;DHT22;16985;50.814;8.530;2023-02-15T03:40:28;1.10;99.90
30174;DHT22;16985;50.814;8.530;2023-02-15T03:46:27;1.10;99.90
30174;DHT22;16985;50.814;8.530;2023-02-15T03:49:09;1.10;99.90
30174;DHT22;16985;50.814;8.530;2023-02-15T03:51:39;1.10;99.90
30174;DHT22;16985;50.814;8.530;2023-02-15T03:54:28;1.00;99.90
30174;DHT22;16985;50.814;8.530;2023-02-15T03:57:20;1.00;99.90
30174;DHT22;16985;50.814;8.530;2023-02-15T04:00:14;1.00;99.90
30174;DHT22;16985;50.814;8.530;2023-02-15T04:03:11;1.00;99.90
30174;DHT22;16985;50.814;8.530;2023-02-15T04:05:43;1.00;99.90
30174;DHT22;16985;50.814;8.530;2023-02-15T04:08:10;1.00;99.90
30174;DHT22;16985;50.814;8.530;2023-02-15T04:10:37;1.00;99.90
30174;DHT22;16985;50.814;8.530;2023-02-15T04:13:23;1.00;99.90
30174;DHT22;16985;50.814;8.530;2023-02-15T04:15:55;1.00;99.90
30174;DHT22;16985;50.814;8.530;2023-02-15T04:18:39;1.10;99.90
30174;DHT22;16985;50.814;8.530;2023-02-15T04:21:27;1.20;99.90
30174;DHT22;16985;50.814;8.530;2023-02-15T04:24:13;1.00;99.90
30174;DHT22;16985;50.814;8.530;2023-02-15T04:26:58;1.00;99.90
30174;DHT22;16985;50.814;8.530;2023-02-15T04:29:26;1.10;99.90
30174;DHT22;16985;50.814;8.530;2023-02-15T04:31:55;1.00;99.90
30174;DHT22;16985;50.814;8.530;2023-02-15T04:34:22;1.00;99.90
30174;DHT22;16985;50.814;8.530;2023-02-15T04:36:49;1.00;99.90
30174;DHT22;16985;50.814;8.530;2023-02-15T04:39:17;1.00;99.90
30174;DHT22;16985;50.814;8.530;2023-02-15T04:41:44;1.00;99.90
30174;DHT22;16985;50.814;8.530;2023-02-15T04:44:11;1.00;99.90
30174;DHT22;16985;50.814;8.530;2023-02-15T04:46:38;1.00;99.90
30174;DHT22;16985;50.814;8.530;2023-02-15T04:49:04;1.10;99.90
30174;DHT22;16985;50.814;8.530;2023-02-15T04:51:30;1.00;99.90
30174;DHT22;16985;50.814;8.530;2023-02-15T04:53:56;1.00;99.90
30174;DHT22;16985;50.814;8.530;2023-02-15T04:56:22;1.00;99.90
30174;DHT22;16985;50.814;8.530;2023-02-15T04:58:49;1.10;99.90
30174;DHT22;16985;50.814;8.530;2023-02-15T05:01:15;1.00;99.90
30174;DHT22;16985;50.814;8.530;2023-02-15T05:03:42;1.00;99.90
30174;DHT22;16985;50.814;8.530;2023-02-15T05:06:08;1.00;99.90
30174;DHT22;16985;50.814;8.530;2023-02-15T05:08:34;1.00;99.90
30174;DHT22;16985;50.814;8.530;2023-02-15T05:11:00;1.00;99.90
30174;DHT22;16985;50.814;8.530;2023-02-15T05:13:26;0.90;99.90
30174;DHT22;16985;50.814;8.530;2023-02-15T05:15:52;0.80;99.90
30174;DHT22;16985;50.814;8.530;2023-02-15T05:18:20;0.90;99.90
30174;DHT22;16985;50.814;8.530;2023-02-15T05:20:47;0.90;99.90
30174;DHT22;16985;50.814;8.530;2023-02-15T05:23:15;0.90;99.90
30174;DHT22;16985;50.814;8.530;2023-02-15T05:25:45;0.80;99.90
30174;DHT22;16985;50.814;8.530;2023-02-15T05:28:31;0.90;99.90
30174;DHT22;16985;50.814;8.530;2023-02-15T05:31:07;0.90;99.90
30174;DHT22;16985;50.814;8.530;2023-02-15T05:33:36;0.90;99.90
30174;DHT22;16985;50.814;8.530;2023-02-15T05:36:03;0.90;99.90
30174;DHT22;16985;50.814;8.530;2023-02-15T05:38:30;0.80;99.90
30174;DHT22;16985;50.814;8.530;2023-02-15T05:40:56;0.90;99.90
30174;DHT22;16985;50.814;8.530;2023-02-15T05:43:22;0.90;99.90
30174;DHT22;16985;50.814;8.530;2023-02-15T05:45:50;0.90;99.90
30174;DHT22;16985;50.814;8.530;2023-02-15T05:48:21;0.90;99.90
30174;DHT22;16985;50.814;8.530;2023-02-15T05:53:28;1.00;99.90
30174;DHT22;16985;50.814;8.530;2023-02-15T05:55:56;1.00;99.90
30174;DHT22;16985;50.814;8.530;2023-02-15T05:58:29;1.00;99.90
30174;DHT22;16985;50.814;8.530;2023-02-15T06:00:56;1.00;99.90
30174;DHT22;16985;50.814;8.530;2023-02-15T06:03:23;0.90;99.90
30174;DHT22;16985;50.814;8.530;2023-02-15T06:05:51;0.90;99.90
30174;DHT22;16985;50.814;8.530;2023-02-15T06:08:18;0.90;99.90
30174;DHT22;16985;50.814;8.530;2023-02-15T06:10:47;0.90;99.90
30174;DHT22;16985;50.814;8.530;2023-02-15T06:13:13;0.90;99.90
30174;DHT22;16985;50.814;8.530;2023-02-15T06:15:39;0.80;99.90
30174;DHT22;16985;50.814;8.530;2023-02-15T06:18:06;0.80;99.90
30174;DHT22;16985;50.814;8.530;2023-02-15T06:20:32;0.80;99.90
30174;DHT22;16985;50.814;8.530;2023-02-15T06:22:58;0.70;99.90
30174;DHT22;16985;50.814;8.530;2023-02-15T06:25:25;0.70;99.90
30174;DHT22;16985;50.814;8.530;2023-02-15T06:27:52;0.70;99.90
30174;DHT22;16985;50.814;8.530;2023-02-15T06:30:18;0.70;99.90
30174;DHT22;16985;50.814;8.530;2023-02-15T06:32:44;0.70;99.90
30174;DHT22;16985;50.814;8.530;2023-02-15T06:35:10;0.70;99.90
30174;DHT22;16985;50.814;8.530;2023-02-15T06:37:37;0.70;99.90
30174;DHT22;16985;50.814;8.530;2023-02-15T06:40:03;0.60;99.90
30174;DHT22;16985;50.814;8.530;2023-02-15T06:42:30;0.60;99.90
30174;DHT22;16985;50.814;8.530;2023-02-15T06:44:55;0.60;99.90
30174;DHT22;16985;50.814;8.530;2023-02-15T06:47:21;0.60;99.90
30174;DHT22;16985;50.814;8.530;2023-02-15T06:49:47;0.60;99.90
30174;DHT22;16985;50.814;8.530;2023-02-15T06:52:13;0.60;99.90
30174;DHT22;16985;50.814;8.530;2023-02-15T06:54:38;0.60;99.90
30174;DHT22;16985;50.814;8.530;2023-02-15T06:57:04;0.60;99.90
30174;DHT22;16985;50.814;8.530;2023-02-15T06:59:30;0.60;99.90
30174;DHT22;16985;50.814;8.530;2023-02-15T07:01:56;0.60;99.90
30174;DHT22;16985;50.814;8.530;2023-02-15T07:04:21;0.60;99.90
30174;DHT22;16985;50.814;8.530;2023-02-15T07:06:47;0.60;99.90
30174;DHT22;16985;50.814;8.530;2023-02-15T07:09:13;0.60;99.90
30174;DHT22;16985;50.814;8.530;2023-02-15T07:11:39;0.60;99.90
30174;DHT22;16985;50.814;8.530;2023-02-15T07:14:23;0.60;99.90
30174;DHT22;16985;50.814;8.530;2023-02-15T07:16:49;0.60;99.90
30174;DHT22;16985;50.814;8.530;2023-02-15T07:19:15;0.50;99.90
30174;DHT22;16985;50.814;8.530;2023-02-15T07:21:41;0.50;99.90
30174;DHT22;16985;50.814;8.530;2023-02-15T07:24:07;0.60;99.90
30174;DHT22;16985;50.814;8.530;2023-02-15T07:26:33;0.50;99.90
30174;DHT22;16985;50.814;8.530;2023-02-15T07:28:59;0.50;99.90
30174;DHT22;16985;50.814;8.530;2023-02-15T07:31:24;0.50;99.90
30174;DHT22;16985;50.814;8.530;2023-02-15T07:33:50;0.40;99.90
30174;DHT22;16985;50.814;8.530;2023-02-15T07:36:16;0.40;99.90
30174;DHT22;16985;50.814;8.530;2023-02-15T07:38:42;0.50;99.90
30174;DHT22;16985;50.814;8.530;2023-02-15T07:41:13;0.40;99.90
30174;DHT22;16985;50.814;8.530;2023-02-15T07:43:41;0.50;99.90
30174;DHT22;16985;50.814;8.530;2023-02-15T07:46:12;0.50;99.90
30174;DHT22;16985;50.814;8.530;2023-02-15T07:48:40;0.70;99.90
30174;DHT22;16985;50.814;8.530;2023-02-15T07:51:08;0.50;99.90
30174;DHT22;16985;50.814;8.530;2023-02-15T07:53:36;0.50;99.90
30174;DHT22;16985;50.814;8.530;2023-02-15T07:56:04;0.50;99.90
30174;DHT22;16985;50.814;8.530;2023-02-15T07:58:32;0.50;99.90
30174;DHT22;16985;50.814;8.530;2023-02-15T08:01:25;0.50;99.90
30174;DHT22;16985;50.814;8.530;2023-02-15T08:04:01;0.50;99.90
30174;DHT22;16985;50.814;8.530;2023-02-15T08:06:30;0.40;99.90
30174;DHT22;16985;50.814;8.530;2023-02-15T08:08:58;0.50;99.90
30174;DHT22;16985;50.814;8.530;2023-02-15T08:11:28;0.50;99.90
30174;DHT22;16985;50.814;8.530;2023-02-15T08:16:43;0.60;99.90
30174;DHT22;16985;50.814;8.530;2023-02-15T08:19:24;0.60;99.90
30174;DHT22;16985;50.814;8.530;2023-02-15T08:21:57;0.60;99.90
30174;DHT22;16985;50.814;8.530;2023-02-15T08:24:29;0.60;99.90
30174;DHT22;16985;50.814;8.530;2023-02-15T08:26:58;0.70;99.90
30174;DHT22;16985;50.814;8.530;2023-02-15T08:29:26;0.70;99.90
30174;DHT22;16985;50.814;8.530;2023-02-15T08:31:58;0.60;99.90
30174;DHT22;16985;50.814;8.530;2023-02-15T08:34:32;0.70;99.90
30174;DHT22;16985;50.814;8.530;2023-02-15T08:37:09;0.70;99.90
30174;DHT22;16985;50.814;8.530;2023-02-15T08:39:35;0.70;99.90
30174;DHT22;16985;50.814;8.530;2023-02-15T08:42:01;0.70;99.90
30174;DHT22;16985;50.814;8.530;2023-02-15T08:44:27;0.70;99.90
30174;DHT22;16985;50.814;8.530;2023-02-15T08:46:53;0.70;99.90
30174;DHT22;16985;50.814;8.530;2023-02-15T08:49:21;0.80;99.90
30174;DHT22;16985;50.814;8.530;2023-02-15T08:51:48;0.80;99.90
30174;DHT22;16985;50.814;8.530;2023-02-15T08:54:16;0.80;99.90
30174;DHT22;16985;50.814;8.530;2023-02-15T08:56:44;0.80;99.90
30174;DHT22;16985;50.814;8.530;2023-02-15T08:59:14;0.80;99.90
30174;DHT22;16985;50.814;8.530;2023-02-15T09:01:44;0.80;99.90
30174;DHT22;16985;50.814;8.530;2023-02-15T09:04:10;0.90;99.90
30174;DHT22;16985;50.814;8.530;2023-02-15T09:06:39;0.90;99.90
30174;DHT22;16985;50.814;8.530;2023-02-15T09:09:06;0.90;99.90
30174;DHT22;16985;50.814;8.530;2023-02-15T09:11:41;0.90;99.90
30174;DHT22;16985;50.814;8.530;2023-02-15T09:14:11;0.90;99.90
30174;DHT22;16985;50.814;8.530;2023-02-15T09:16:42;1.00;99.90
30174;DHT22;16985;50.814;8.530;2023-02-15T09:19:15;1.00;99.90
30174;DHT22;16985;50.814;8.530;2023-02-15T09:21:41;1.10;99.90
30174;DHT22;16985;50.814;8.530;2023-02-15T09:24:09;1.10;99.90
30174;DHT22;16985;50.814;8.530;2023-02-15T09:26:38;1.10;99.90
30174;DHT22;16985;50.814;8.530;2023-02-15T09:29:06;1.10;99.90
30174;DHT22;16985;50.814;8.530;2023-02-15T09:31:37;1.10;99.90
30174;DHT22;16985;50.814;8.530;2023-02-15T09:34:04;1.20;99.90
30174;DHT22;16985;50.814;8.530;2023-02-15T09:36:35;1.20;99.90
30174;DHT22;16985;50.814;8.530;2023-02-15T09:39:22;1.20;99.90
30174;DHT22;16985;50.814;8.530;2023-02-15T09:44:38;1.20;99.90
30174;DHT22;16985;50.814;8.530;2023-02-15T09:47:49;1.30;99.90
30174;DHT22;16985;50.814;8.530;2023-02-15T09:56:45;1.40;99.90
30174;DHT22;16985;50.814;8.530;2023-02-15T10:13:35;1.60;99.90
30174;DHT22;16985;50.814;8.530;2023-02-15T10:18:42;1.60;99.90
30174;DHT22;16985;50.814;8.530;2023-02-15T10:21:19;1.70;99.90
30174;DHT22;16985;50.814;8.530;2023-02-15T10:24:21;1.70;99.90
30174;DHT22;16985;50.814;8.530;2023-02-15T10:27:01;1.70;99.90
30174;DHT22;16985;50.814;8.530;2023-02-15T10:29:38;1.80;99.90
30174;DHT22;16985;50.814;8.530;2023-02-15T10:35:03;1.80;99.90
30174;DHT22;16985;50.814;8.530;2023-02-15T10:47:02;2.00;99.90
30174;DHT22;16985;50.814;8.530;2023-02-15T10:58:56;2.10;99.90
30174;DHT22;16985;50.814;8.530;2023-02-15T11:07:04;2.20;99.90
30174;DHT22;16985;50.814;8.530;2023-02-15T11:09:44;2.30;99.90
30174;DHT22;16985;50.814;8.530;2023-02-15T11:12:24;2.30;99.90
30174;DHT22;16985;50.814;8.530;2023-02-15T11:14:55;2.30;99.90
30174;DHT22;16985;50.814;8.530;2023-02-15T11:17:49;2.30;99.90
30174;DHT22;16985;50.814;8.530;2023-02-15T11:20:29;2.40;99.90
30174;DHT22;16985;50.814;8.530;2023-02-15T11:22:59;2.40;99.90
30174;DHT22;16985;50.814;8.530;2023-02-15T11:25:32;2.50;99.90
30174;DHT22;16985;50.814;8.530;2023-02-15T11:28:03;2.50;99.90
30174;DHT22;16985;50.814;8.530;2023-02-15T11:30:40;2.60;99.90
30174;DHT22;16985;50.814;8.530;2023-02-15T11:33:18;2.60;99.90
30174;DHT22;16985;50.814;8.530;2023-02-15T11:35:56;2.70;99.90
30174;DHT22;16985;50.814;8.530;2023-02-15T11:38:28;2.70;99.90
30174;DHT22;16985;50.814;8.530;2023-02-15T11:41:04;2.70;99.90
30174;DHT22;16985;50.814;8.530;2023-02-15T11:43:40;2.80;99.90
30174;DHT22;16985;50.814;8.530;2023-02-15T11:46:12;2.80;99.90
30174;DHT22;16985;50.814;8.530;2023-02-15T11:48:38;2.80;99.90
30174;DHT22;16985;50.814;8.530;2023-02-15T11:51:04;2.90;99.90
30174;DHT22;16985;50.814;8.530;2023-02-15T11:53:36;2.90;99.90
30174;DHT22;16985;50.814;8.530;2023-02-15T11:56:03;3.00;99.90
30174;DHT22;16985;50.814;8.530;2023-02-15T11:58:56;3.00;99.90
30174;DHT22;16985;50.814;8.530;2023-02-15T12:01:31;3.10;99.90
30174;DHT22;16985;50.814;8.530;2023-02-15T12:04:22;3.10;99.90
30174;DHT22;16985;50.814;8.530;2023-02-15T12:07:01;3.20;99.90
30174;DHT22;16985;50.814;8.530;2023-02-15T12:09:34;3.30;99.90
30174;DHT22;16985;50.814;8.530;2023-02-15T12:12:27;3.30;99.90
30174;DHT22;16985;50.814;8.530;2023-02-15T12:15:02;3.40;99.90
30174;DHT22;16985;50.814;8.530;2023-02-15T12:18:15;3.40;99.90
30174;DHT22;16985;50.814;8.530;2023-02-15T12:20:31;3.40;99.90
30174;DHT22;16985;50.814;8.530;2023-02-15T12:23:11;3.50;99.90
30174;DHT22;16985;50.814;8.530;2023-02-15T12:28:33;3.60;99.90
30174;DHT22;16985;50.814;8.530;2023-02-15T12:31:30;3.60;99.90
30174;DHT22;16985;50.814;8.530;2023-02-15T12:34:01;3.60;99.90
30174;DHT22;16985;50.814;8.530;2023-02-15T12:36:41;3.70;99.90
30174;DHT22;16985;50.814;8.530;2023-02-15T12:39:20;3.70;99.90
30174;DHT22;16985;50.814;8.530;2023-02-15T12:49:36;3.90;99.90
30174;DHT22;16985;50.814;8.530;2023-02-15T12:52:04;4.10;99.90
30174;DHT22;16985;50.814;8.530;2023-02-15T12:54:42;3.80;99.90
30174;DHT22;16985;50.814;8.530;2023-02-15T12:59:55;3.80;99.90
30174;DHT22;16985;50.814;8.530;2023-02-15T13:02:48;4.70;99.90
30174;DHT22;16985;50.814;8.530;2023-02-15T13:05:41;3.80;99.90
30174;DHT22;16985;50.814;8.530;2023-02-15T13:08:37;3.90;99.90
30174;DHT22;16985;50.814;8.530;2023-02-15T13:11:11;3.90;99.90
30174;DHT22;16985;50.814;8.530;2023-02-15T13:13:56;4.00;99.90
30174;DHT22;16985;50.814;8.530;2023-02-15T13:16:36;3.50;99.90
30174;DHT22;16985;50.814;8.530;2023-02-15T13:19:09;3.90;99.90
30174;DHT22;16985;50.814;8.530;2023-02-15T13:21:45;4.90;99.90
30174;DHT22;16985;50.814;8.530;2023-02-15T13:24:34;4.60;99.90
30174;DHT22;16985;50.814;8.530;2023-02-15T13:27:03;3.90;99.90
30174;DHT22;16985;50.814;8.530;2023-02-15T13:29:34;4.00;99.90
30174;DHT22;16985;50.814;8.530;2023-02-15T13:32:30;3.90;99.90
30174;DHT22;16985;50.814;8.530;2023-02-15T13:34:59;3.90;99.90
30174;DHT22;16985;50.814;8.530;2023-02-15T13:37:46;4.00;99.90
30174;DHT22;16985;50.814;8.530;2023-02-15T13:48:52;3.90;99.90
30174;DHT22;16985;50.814;8.530;2023-02-15T13:57:23;4.00;99.90
30174;DHT22;16985;50.814;8.530;2023-02-15T14:03:11;4.10;99.90
30174;DHT22;16985;50.814;8.530;2023-02-15T14:19:16;4.20;99.90
30174;DHT22;16985;50.814;8.530;2023-02-15T14:25:34;4.20;99.90
30174;DHT22;16985;50.814;8.530;2023-02-15T14:31:12;4.20;99.90
30174;DHT22;16985;50.814;8.530;2023-02-15T14:33:55;4.30;99.90
30174;DHT22;16985;50.814;8.530;2023-02-15T14:36:22;4.30;99.90
30174;DHT22;16985;50.814;8.530;2023-02-15T14:39:25;4.10;99.90
30174;DHT22;16985;50.814;8.530;2023-02-15T14:42:25;4.20;99.90
30174;DHT22;16985;50.814;8.530;2023-02-15T14:45:34;4.20;99.90
30174;DHT22;16985;50.814;8.530;2023-02-15T14:54:10;4.20;99.90
30174;DHT22;16985;50.814;8.530;2023-02-15T15:09:40;4.00;99.90
30174;DHT22;16985;50.814;8.530;2023-02-15T15:15:00;4.10;99.90
30174;DHT22;16985;50.814;8.530;2023-02-15T15:20:11;4.00;99.90
30174;DHT22;16985;50.814;8.530;2023-02-15T15:22:46;4.00;99.90
30174;DHT22;16985;50.814;8.530;2023-02-15T15:28:05;3.70;99.90
30174;DHT22;16985;50.814;8.530;2023-02-15T15:36:39;3.70;99.90
30174;DHT22;16985;50.814;8.530;2023-02-15T15:42:48;3.60;99.90
30174;DHT22;16985;50.814;8.530;2023-02-15T15:46:06;3.60;99.90
30174;DHT22;16985;50.814;8.530;2023-02-15T15:49:12;3.60;99.90
30174;DHT22;16985;50.814;8.530;2023-02-15T15:51:44;3.50;99.90
30174;DHT22;16985;50.814;8.530;2023-02-15T15:54:23;3.50;99.90
30174;DHT22;16985;50.814;8.530;2023-02-15T15:57:03;3.50;99.90
30174;DHT22;16985;50.814;8.530;2023-02-15T15:59:34;3.40;99.90
30174;DHT22;16985;50.814;8.530;2023-02-15T16:02:13;3.30;99.90
30174;DHT22;16985;50.814;8.530;2023-02-15T16:04:43;3.40;99.90
30174;DHT22;16985;50.814;8.530;2023-02-15T16:10:27;3.30;99.90
30174;DHT22;16985;50.814;8.530;2023-02-15T16:13:05;3.30;99.90
30174;DHT22;16985;50.814;8.530;2023-02-15T16:15:45;3.20;99.90
30174;DHT22;16985;50.814;8.530;2023-02-15T16:18:25;3.20;99.90
30174;DHT22;16985;50.814;8.530;2023-02-15T16:20:57;3.20;99.90
30174;DHT22;16985;50.814;8.530;2023-02-15T16:29:27;2.90;99.90
30174;DHT22;16985;50.814;8.530;2023-02-15T16:32:29;3.00;99.90
30174;DHT22;16985;50.814;8.530;2023-02-15T16:35:11;2.90;99.90
30174;DHT22;16985;50.814;8.530;2023-02-15T16:37:45;3.00;99.90
30174;DHT22;16985;50.814;8.530;2023-02-15T16:42:57;2.90;99.90
30174;DHT22;16985;50.814;8.530;2023-02-15T16:45:36;2.90;99.90
30174;DHT22;16985;50.814;8.530;2023-02-15T16:48:08;2.90;99.90
30174;DHT22;16985;50.814;8.530;2023-02-15T16:50:41;2.90;99.90
30174;DHT22;16985;50.814;8.530;2023-02-15T16:53:26;5.30;99.90
30174;DHT22;16985;50.814;8.530;2023-02-15T16:55:59;2.80;99.90
30174;DHT22;16985;50.814;8.530;2023-02-15T16:58:44;2.70;99.90
30174;DHT22;16985;50.814;8.530;2023-02-15T17:01:13;2.70;99.90
30174;DHT22;16985;50.814;8.530;2023-02-15T17:03:48;2.70;99.90
30174;DHT22;16985;50.814;8.530;2023-02-15T17:06:25;2.60;99.90
30174;DHT22;16985;50.814;8.530;2023-02-15T17:09:03;2.60;99.90
30174;DHT22;16985;50.814;8.530;2023-02-15T17:11:36;2.60;99.90
30174;DHT22;16985;50.814;8.530;2023-02-15T17:16:35;2.50;99.90
30174;DHT22;16985;50.814;8.530;2023-02-15T17:19:27;2.50;99.90
30174;DHT22;16985;50.814;8.530;2023-02-15T17:21:57;2.20;99.90
30174;DHT22;16985;50.814;8.530;2023-02-15T17:27:23;2.40;99.90
30174;DHT22;16985;50.814;8.530;2023-02-15T17:30:00;2.30;99.90
30174;DHT22;16985;50.814;8.530;2023-02-15T17:33:03;2.40;99.90
30174;DHT22;16985;50.814;8.530;2023-02-15T17:36:03;2.40;99.90
30174;DHT22;16985;50.814;8.530;2023-02-15T17:41:35;2.30;99.90
30174;DHT22;16985;50.814;8.530;2023-02-15T17:44:12;2.40;99.90
30174;DHT22;16985;50.814;8.530;2023-02-15T17:46:50;2.20;99.90
30174;DHT22;16985;50.814;8.530;2023-02-15T17:49:28;2.40;99.90
30174;DHT22;16985;50.814;8.530;2023-02-15T17:52:00;2.40;99.90
30174;DHT22;16985;50.814;8.530;2023-02-15T17:54:29;2.30;99.90
30174;DHT22;16985;50.814;8.530;2023-02-15T17:57:15;2.30;99.90
30174;DHT22;16985;50.814;8.530;2023-02-15T17:59:42;2.30;99.90
30174;DHT22;16985;50.814;8.530;2023-02-15T18:02:33;2.30;99.90
30174;DHT22;16985;50.814;8.530;2023-02-15T18:05:21;2.30;99.90
30174;DHT22;16985;50.814;8.530;2023-02-15T18:08:12;2.30;99.90
30174;DHT22;16985;50.814;8.530;2023-02-15T18:10:57;2.30;99.90
30174;DHT22;16985;50.814;8.530;2023-02-15T18:13:42;2.30;99.90
30174;DHT22;16985;50.814;8.530;2023-02-15T18:16:12;2.30;99.90
30174;DHT22;16985;50.814;8.530;2023-02-15T18:18:43;2.30;99.90
30174;DHT22;16985;50.814;8.530;2023-02-15T18:21:11;2.30;99.90
30174;DHT22;16985;50.814;8.530;2023-02-15T18:23:46;2.30;99.90
30174;DHT22;16985;50.814;8.530;2023-02-15T18:26:21;2.20;99.90
30174;DHT22;16985;50.814;8.530;2023-02-15T18:28:49;2.30;99.90
30174;DHT22;16985;50.814;8.530;2023-02-15T18:31:15;2.30;99.90
30174;DHT22;16985;50.814;8.530;2023-02-15T18:33:51;2.10;99.90
30174;DHT22;16985;50.814;8.530;2023-02-15T18:36:32;2.20;99.90
30174;DHT22;16985;50.814;8.530;2023-02-15T18:39:05;2.20;99.90
30174;DHT22;16985;50.814;8.530;2023-02-15T18:41:52;2.20;99.90
30174;DHT22;16985;50.814;8.530;2023-02-15T18:44:19;2.20;99.90
30174;DHT22;16985;50.814;8.530;2023-02-15T18:46:45;2.30;99.90
30174;DHT22;16985;50.814;8.530;2023-02-15T18:49:11;2.20;99.90
30174;DHT22;16985;50.814;8.530;2023-02-15T18:51:37;2.20;99.90
30174;DHT22;16985;50.814;8.530;2023-02-15T18:54:22;2.20;99.90
30174;DHT22;16985;50.814;8.530;2023-02-15T18:56:58;2.10;99.90
30174;DHT22;16985;50.814;8.530;2023-02-15T18:59:30;2.20;99.90
30174;DHT22;16985;50.814;8.530;2023-02-15T19:01:57;2.20;99.90
30174;DHT22;16985;50.814;8.530;2023-02-15T19:04:25;2.10;99.90
30174;DHT22;16985;50.814;8.530;2023-02-15T19:06:56;2.20;99.90
30174;DHT22;16985;50.814;8.530;2023-02-15T19:09:23;2.20;99.90
30174;DHT22;16985;50.814;8.530;2023-02-15T19:11:56;2.10;99.90
30174;DHT22;16985;50.814;8.530;2023-02-15T19:14:29;2.10;99.90
30174;DHT22;16985;50.814;8.530;2023-02-15T19:16:57;2.10;99.90
30174;DHT22;16985;50.814;8.530;2023-02-15T19:19:31;2.10;99.90
30174;DHT22;16985;50.814;8.530;2023-02-15T19:22:00;2.10;99.90
30174;DHT22;16985;50.814;8.530;2023-02-15T19:24:39;2.10;99.90
30174;DHT22;16985;50.814;8.530;2023-02-15T19:27:19;2.10;99.90
30174;DHT22;16985;50.814;8.530;2023-02-15T19:29:48;2.10;99.90
30174;DHT22;16985;50.814;8.530;2023-02-15T19:32:15;2.10;99.90